createdAt,value
2023-04-16T04:48:01.945Z,11.37
2023-04-16T04:53:09.950Z,11.90
2023-04-16T04:58:12.794Z,13.20
2023-04-16T05:03:20.791Z,8.57
2023-04-16T05:08:23.614Z,9.37
2023-04-16T05:13:26.370Z,8.30
2023-04-16T05:18:29.114Z,8.30
2023-04-16T05:23:31.948Z,9.73
2023-04-16T05:28:34.702Z,10.27
2023-04-16T05:33:37.557Z,11.17
2023-04-16T05:38:40.458Z,11.60
2023-04-16T05:43:43.210Z,11.57
2023-04-16T05:48:46.077Z,12.43
2023-04-16T05:53:48.845Z,10.13
2023-04-16T05:58:51.649Z,12.90
2023-04-16T06:03:54.609Z,11.70
2023-04-16T06:08:57.578Z,12.67
2023-04-16T06:14:00.387Z,10.47
2023-04-16T06:19:03.145Z,11.30
2023-04-16T06:24:06.358Z,11.37
2023-04-16T06:29:09.459Z,12.30
2023-04-16T06:34:12.558Z,11.53
2023-04-16T06:39:15.503Z,10.93
2023-04-16T06:44:18.341Z,9.93
2023-04-16T06:49:21.576Z,10.70
2023-04-16T06:54:24.514Z,9.90
2023-04-16T06:59:27.282Z,9.77
2023-04-16T07:04:30.128Z,10.03
2023-04-16T07:09:33.133Z,8.83
2023-04-16T07:14:36.227Z,8.50
2023-04-16T07:19:39.058Z,8.00
2023-04-16T07:24:42.093Z,8.37
2023-04-16T07:29:45.951Z,7.30
2023-04-16T07:34:48.839Z,6.47
2023-04-16T07:39:52.999Z,6.90
2023-04-16T07:44:56.485Z,7.57
2023-04-16T07:49:59.316Z,7.53
2023-04-16T07:55:02.154Z,6.93
2023-04-16T08:00:05.651Z,5.50
2023-04-16T08:05:08.699Z,5.87
2023-04-16T08:10:11.811Z,7.00
2023-04-16T08:15:14.612Z,6.33
2023-04-16T08:20:19.227Z,5.27
2023-04-16T08:25:24.679Z,6.33
2023-04-16T08:30:27.566Z,6.17
2023-04-16T08:35:30.471Z,6.10
2023-04-16T08:40:33.658Z,6.17
2023-04-16T08:45:37.574Z,6.83
2023-04-16T08:50:41.412Z,6.60
2023-04-16T08:55:50.502Z,4.43
2023-04-16T09:00:53.365Z,4.87
2023-04-16T09:05:57.657Z,5.23
2023-04-16T09:11:00.505Z,4.07
2023-04-16T09:16:03.698Z,4.33
2023-04-16T09:21:08.507Z,4.63
2023-04-16T09:26:11.308Z,3.97
2023-04-16T09:31:15.709Z,5.00
2023-04-16T09:36:23.783Z,3.60
2023-04-16T09:41:28.525Z,3.47
2023-04-16T09:46:36.202Z,3.47
2023-04-16T09:51:45.048Z,4.23
2023-04-16T09:56:47.899Z,3.87
2023-04-16T10:01:53.259Z,4.17
2023-04-16T10:07:07.362Z,3.50
2023-04-16T10:12:10.867Z,4.60
2023-04-16T10:17:13.893Z,4.70
2023-04-16T10:22:16.911Z,3.77
2023-04-16T10:27:20.325Z,4.77
2023-04-16T10:32:28.481Z,4.07
2023-04-16T10:37:34.586Z,3.87
2023-04-16T10:42:39.023Z,3.53
2023-04-16T10:47:43.188Z,2.90
2023-04-16T10:52:46.537Z,3.00
2023-04-16T10:57:57.331Z,3.87
2023-04-16T11:03:02.219Z,3.87
2023-04-16T11:08:14.629Z,3.43
2023-04-16T11:13:17.707Z,3.43
2023-04-16T11:18:20.826Z,3.60
2023-04-16T11:23:23.773Z,3.23
2023-04-16T11:28:36.794Z,3.70
2023-04-16T11:33:39.764Z,3.57
2023-04-16T11:38:43.037Z,3.93
2023-04-16T11:43:46.066Z,3.47
2023-04-16T11:48:53.853Z,3.70
2023-04-16T11:53:56.698Z,3.30
2023-04-16T11:59:23.210Z,3.03
2023-04-16T12:04:27.203Z,3.97
2023-04-16T12:09:30.109Z,3.40
2023-04-16T12:14:33.259Z,4.10
2023-04-16T12:19:52.556Z,3.87
2023-04-16T12:25:21.501Z,3.43
2023-04-16T12:30:26.265Z,3.80
2023-04-16T12:35:33.308Z,3.90
2023-04-16T12:40:36.542Z,3.90
2023-04-16T12:45:40.430Z,4.23
2023-04-16T12:50:44.315Z,3.30
2023-04-16T12:55:47.256Z,3.67
2023-04-16T13:00:50.268Z,3.10
2023-04-16T13:05:53.179Z,3.60
2023-04-16T13:10:55.984Z,3.27
2023-04-16T13:15:58.832Z,3.07
2023-04-16T13:21:01.774Z,3.60
2023-04-16T13:26:04.702Z,3.77
2023-04-16T13:31:07.470Z,2.87
2023-04-16T13:36:10.384Z,3.27
2023-04-16T13:41:13.142Z,3.20
2023-04-16T13:46:15.947Z,3.17
2023-04-16T13:51:19.198Z,3.27
2023-04-16T13:56:22.048Z,4.00
2023-04-16T14:01:25.037Z,3.50
2023-04-16T14:06:27.976Z,3.40
2023-04-16T14:11:31.188Z,3.40
2023-04-16T14:16:34.602Z,3.00
2023-04-16T14:21:37.395Z,2.80
2023-04-16T14:26:40.255Z,2.77
2023-04-16T14:31:43.043Z,2.43
2023-04-16T14:36:45.907Z,2.20
2023-04-16T14:41:48.676Z,3.07
2023-04-16T14:46:51.489Z,3.53
2023-04-16T14:51:54.315Z,3.83
2023-04-16T14:56:57.029Z,3.83
2023-04-16T15:01:59.876Z,3.50
2023-04-16T15:07:02.649Z,3.70
2023-04-16T15:12:05.624Z,2.93
2023-04-16T15:17:08.426Z,3.40
2023-04-16T15:22:11.299Z,3.77
2023-04-16T15:27:14.729Z,3.53
2023-04-16T15:32:17.484Z,3.60
2023-04-16T15:37:20.342Z,2.97
2023-04-16T15:42:24.321Z,3.00
2023-04-16T15:47:27.236Z,4.00
2023-04-16T15:52:30.116Z,4.30
2023-04-16T15:57:32.872Z,4.30
2023-04-16T16:02:36.140Z,3.83
2023-04-16T16:07:39.648Z,4.37
2023-04-16T16:12:42.461Z,4.27
2023-04-16T16:17:45.272Z,5.20
2023-04-16T16:22:48.411Z,4.90
2023-04-16T16:27:52.763Z,4.53
2023-04-16T16:32:55.652Z,4.73
2023-04-16T16:37:59.427Z,4.83
2023-04-16T16:43:02.808Z,4.53
2023-04-16T16:48:05.951Z,4.40
2023-04-16T16:53:09.060Z,3.97
2023-04-16T16:58:11.852Z,4.33
2023-04-16T17:03:14.884Z,4.03
2023-04-16T17:08:17.810Z,4.80
2023-04-16T17:13:21.073Z,5.63
2023-04-16T17:18:26.708Z,5.43
2023-04-16T17:23:29.514Z,5.17
2023-04-16T17:28:32.279Z,5.30
2023-04-16T17:33:35.483Z,4.67
2023-04-16T17:38:38.233Z,5.17
2023-04-16T17:43:41.088Z,5.03
2023-04-16T17:48:44.259Z,4.60
2023-04-16T17:53:47.051Z,5.10
2023-04-16T17:58:49.828Z,5.10
2023-04-16T18:03:53.102Z,5.70
2023-04-16T18:08:56.790Z,5.37
2023-04-16T18:13:59.605Z,6.17
2023-04-16T18:19:02.350Z,9.67
2023-04-16T18:24:05.458Z,9.07
2023-04-16T18:29:09.123Z,7.57
2023-04-16T18:34:12.557Z,10.10
2023-04-16T18:39:16.192Z,7.67
2023-04-16T18:44:19.888Z,7.60
2023-04-16T18:49:22.693Z,6.83
2023-04-16T18:54:25.480Z,6.70
2023-04-16T18:59:28.317Z,7.00
2023-04-16T19:04:31.558Z,6.63
2023-04-16T19:09:34.435Z,6.60
2023-04-16T19:14:37.274Z,6.90
2023-04-16T19:19:40.047Z,6.83
2023-04-16T19:24:42.859Z,7.00
2023-04-16T19:29:46.756Z,7.27
2023-04-16T19:34:49.661Z,7.53
2023-04-16T19:39:52.556Z,7.23
2023-04-16T19:44:55.390Z,7.93
2023-04-16T19:49:58.177Z,8.43
2023-04-16T19:55:00.958Z,8.43
2023-04-16T20:00:05.518Z,7.97
2023-04-16T20:05:08.811Z,10.00
2023-04-16T20:10:11.841Z,11.60
2023-04-16T20:15:14.997Z,11.73
2023-04-16T20:20:17.766Z,11.90
2023-04-16T20:25:20.736Z,11.17
2023-04-16T20:30:28.878Z,8.73
2023-04-16T20:35:31.695Z,8.37
2023-04-16T20:40:38.677Z,9.60
2023-04-16T20:45:41.854Z,9.77
2023-04-16T20:50:44.591Z,11.50
2023-04-16T20:55:47.326Z,10.77
2023-04-16T21:00:51.365Z,10.03
2023-04-16T21:05:55.164Z,9.27
2023-04-16T21:10:58.191Z,8.07
2023-04-16T21:16:01.175Z,7.00
2023-04-16T21:21:04.134Z,7.30
2023-04-16T21:26:06.897Z,8.20
2023-04-16T21:31:09.717Z,7.97
2023-04-16T21:36:12.530Z,6.87
2023-04-16T21:41:16.445Z,6.73
2023-04-16T21:46:19.305Z,6.30
2023-04-16T21:51:29.115Z,6.10
2023-04-16T21:56:32.089Z,5.30
2023-04-16T22:01:35.057Z,5.23
2023-04-16T22:06:37.994Z,5.80
2023-04-16T22:11:40.790Z,4.87
2023-04-16T22:16:44.807Z,5.10
2023-04-16T22:21:48.171Z,4.80
2023-04-16T22:26:50.942Z,5.20
2023-04-16T22:31:55.072Z,4.67
2023-04-16T22:36:57.975Z,4.90
2023-04-16T22:42:00.816Z,5.30
2023-04-16T22:47:03.800Z,4.73
2023-04-16T22:52:06.694Z,5.63
2023-04-16T22:57:09.419Z,4.90
2023-04-16T23:02:12.214Z,5.07
2023-04-16T23:07:15.648Z,5.33
2023-04-16T23:12:18.464Z,6.03
2023-04-16T23:17:21.480Z,6.00
2023-04-16T23:22:24.459Z,5.33
2023-04-16T23:27:27.231Z,5.47
2023-04-16T23:32:30.070Z,4.60
2023-04-16T23:37:32.871Z,4.57
2023-04-16T23:42:35.687Z,5.33
